Time;durP1;ratioP1;P1;durP2;ratioP2;P2;SDS_P1;SDS_P2;PMS_P1;PMS_P2;Temp;Humidity;BMP_temperature;BMP_pressure;BME280_temperature;BME280_humidity;BME280_pressure;Samples;Min_cycle;Max_cycle;Signal;HPM_P1;HPM_P2
2022/01/18 00:02:25;;;;;;;42.90;22.77;;;;;;;5.58;66.47;100352.84;5094712;28;20095;-47
2022/01/18 00:04:50;;;;;;;45.80;25.17;;;;;;;5.53;66.36;100361.06;5093261;28;20020;-48
2022/01/18 00:07:16;;;;;;;1358.25;735.17;;;;;;;5.51;66.75;100356.91;5094488;28;20032;-48
2022/01/18 00:09:42;;;;;;;183.00;120.72;;;;;;;5.50;66.61;100345.66;5094476;28;20092;-48
2022/01/18 00:12:41;;;;;;;96.25;64.00;;;;;;;5.49;66.26;100357.03;5094462;28;20141;-50
2022/01/18 00:15:27;;;;;;;56.42;36.13;;;;;;;5.51;66.42;100347.31;5094191;28;20044;-48
2022/01/18 00:17:53;;;;;;;53.20;25.55;;;;;;;5.52;66.78;100353.34;5094167;28;20489;-49
2022/01/18 00:20:29;;;;;;;50.90;25.85;;;;;;;5.47;66.09;100358.09;5094393;28;20060;-48
2022/01/18 00:22:54;;;;;;;69.75;39.20;;;;;;;5.32;66.25;100345.41;5094309;28;20020;-48
2022/01/18 00:25:20;;;;;;;57.05;27.13;;;;;;;5.20;67.07;100343.78;5094198;28;20031;-48
2022/01/18 00:27:46;;;;;;;63.13;30.50;;;;;;;5.13;66.95;100350.44;5094141;28;20035;-49
2022/01/18 00:33:43;;;;;;;52.78;26.70;;;;;;;4.99;67.61;100331.56;5094096;28;20474;-48
2022/01/18 00:35:35;;;;;;;51.30;25.80;;;;;;;4.91;67.79;100343.53;5084224;28;20047;-48
2022/01/18 00:38:02;;;;;;;51.30;26.08;;;;;;;4.95;67.88;100337.13;5093488;28;20390;-49
2022/01/18 00:40:28;;;;;;;49.38;25.10;;;;;;;4.99;67.68;100334.19;5093867;28;20030;-47
2022/01/18 00:42:54;;;;;;;50.60;24.20;;;;;;;4.98;67.71;100337.72;5093969;28;20020;-49
2022/01/18 00:45:20;;;;;;;82.40;53.38;;;;;;;4.96;67.53;100336.19;5093860;28;20481;-49
2022/01/18 00:47:46;;;;;;;58.10;28.58;;;;;;;4.95;67.55;100337.97;5092487;28;20028;-49
2022/01/18 00:50:12;;;;;;;51.83;25.75;;;;;;;4.97;67.78;100338.69;5093754;28;20025;-48
2022/01/18 00:52:42;;;;;;;55.53;26.70;;;;;;;4.85;67.28;100338.81;5093651;28;20022;-47
2022/01/18 00:55:10;;;;;;;53.22;26.63;;;;;;;4.82;68.05;100342.50;5092467;28;20031;-49
2022/01/18 00:57:35;;;;;;;50.42;25.85;;;;;;;4.84;68.24;100332.78;5092297;28;20023;-49
2022/01/18 01:00:02;;;;;;;58.70;26.85;;;;;;;4.87;68.02;100331.72;5093467;28;20024;-47
2022/01/18 01:02:28;;;;;;;64.60;29.98;;;;;;;4.87;68.47;100349.94;5093494;28;20497;-47
2022/01/18 01:04:54;;;;;;;62.92;29.20;;;;;;;4.91;68.31;100348.72;5093418;28;20026;-49
2022/01/18 01:07:22;;;;;;;47.75;25.33;;;;;;;4.80;68.11;100336.59;5093381;28;20513;-49
2022/01/18 01:09:49;;;;;;;53.40;26.98;;;;;;;4.73;68.66;100346.66;5092024;28;20030;-49
2022/01/18 01:12:17;;;;;;;60.60;29.63;;;;;;;4.79;68.74;100343.56;5093246;28;20028;-48
2022/01/18 01:14:44;;;;;;;53.00;26.08;;;;;;;4.93;68.57;100332.06;5093191;28;20107;-48
2022/01/18 01:33:55;;;;;;;51.97;25.25;;;;;;;5.11;67.49;100324.56;5092971;28;20039;-50
2022/01/18 01:36:31;;;;;;;47.70;25.58;;;;;;;5.23;67.64;100317.50;5092371;28;20040;-47
2022/01/18 01:42:01;;;;;;;45.90;24.42;;;;;;;5.47;66.86;100311.25;5092758;28;20412;-48
2022/01/18 01:44:41;;;;;;;54.42;25.92;;;;;;;5.50;67.00;100306.59;5092840;28;20478;-48
2022/01/18 01:47:07;;;;;;;91.88;64.35;;;;;;;5.55;66.53;100298.41;5092692;28;20509;-49
2022/01/18 01:49:33;;;;;;;55.80;28.60;;;;;;;5.59;66.33;100294.59;5091795;28;20028;-48
2022/01/18 01:52:04;;;;;;;52.72;25.00;;;;;;;5.62;66.45;100291.75;5092768;28;20084;-49
2022/01/18 01:54:29;;;;;;;45.08;25.00;;;;;;;5.68;66.20;100291.22;5091243;28;20039;-48
2022/01/18 01:56:55;;;;;;;48.55;26.17;;;;;;;5.72;65.94;100292.63;5092392;28;20512;-48
2022/01/18 01:59:21;;;;;;;39.60;20.02;;;;;;;5.77;65.64;100287.81;5092704;28;20032;-47
2022/01/18 02:01:48;;;;;;;46.60;22.25;;;;;;;5.75;65.11;100286.31;5092388;28;20105;-48
2022/01/18 02:04:15;;;;;;;45.80;23.77;;;;;;;5.64;65.63;100284.63;5092357;28;20039;-48
2022/01/18 02:06:41;;;;;;;50.85;26.00;;;;;;;5.38;65.56;100287.63;5092306;28;20016;-48
2022/01/18 02:09:07;;;;;;;44.75;22.65;;;;;;;5.28;65.85;100285.91;5090991;28;20064;-48
2022/01/18 02:11:33;;;;;;;53.88;25.15;;;;;;;5.26;66.01;100291.25;5092146;28;20016;-49
2022/01/18 02:13:59;;;;;;;48.55;22.88;;;;;;;5.29;66.28;100298.81;5092229;28;20493;-49
2022/01/18 02:21:53;;;;;;;46.70;24.88;;;;;;;5.14;66.45;100300.88;5092135;28;20043;-48
2022/01/18 02:24:21;;;;;;;47.28;24.50;;;;;;;5.19;66.36;100293.53;5092047;28;20477;-48
2022/01/18 02:26:47;;;;;;;37.50;21.15;;;;;;;5.31;66.26;100291.69;5090696;28;20031;-49
2022/01/18 02:29:13;;;;;;;34.53;17.73;;;;;;;5.40;66.01;100290.91;5090770;28;20028;-49
2022/01/18 02:31:39;;;;;;;35.28;19.90;;;;;;;5.45;65.60;100293.13;5090570;28;20024;-48
2022/01/18 02:34:14;;;;;;;31.67;16.65;;;;;;;5.44;64.89;100286.28;5091971;28;20089;-48
2022/01/18 02:36:39;;;;;;;28.60;16.63;;;;;;;5.45;65.05;100281.91;5090323;28;20043;-48
2022/01/18 02:39:05;;;;;;;29.67;16.38;;;;;;;5.42;65.13;100276.97;5090556;28;20072;-49
2022/01/18 02:41:32;;;;;;;30.70;16.65;;;;;;;5.41;65.22;100278.72;5091838;28;20024;-49
2022/01/18 02:44:06;;;;;;;28.73;16.92;;;;;;;5.38;64.76;100276.38;5090523;28;20025;-49
2022/01/18 02:46:33;;;;;;;31.75;17.25;;;;;;;5.23;64.95;100275.84;5091843;28;20513;-49
2022/01/18 02:49:01;;;;;;;24.23;14.88;;;;;;;5.14;65.57;100271.44;5090527;28;20528;-50
2022/01/18 02:51:27;;;;;;;33.72;16.55;;;;;;;5.08;65.71;100277.94;5090406;28;20036;-49
2022/01/18 02:53:58;;;;;;;25.95;15.35;;;;;;;5.09;65.67;100283.97;5091781;28;20097;-48
2022/01/18 02:56:26;;;;;;;27.80;18.02;;;;;;;5.11;65.24;100282.06;5090353;28;20482;-49
2022/01/18 02:58:59;;;;;;;29.15;16.52;;;;;;;5.13;65.19;100272.38;5090398;28;20110;-48
2022/01/18 03:04:08;;;;;;;27.15;15.63;;;;;;;5.07;65.91;100275.47;5095821;28;20509;-48
2022/01/18 03:06:34;;;;;;;25.83;16.27;;;;;;;5.15;65.76;100270.47;5095625;28;20024;-48
2022/01/18 03:09:00;;;;;;;31.73;15.95;;;;;;;5.25;65.34;100270.53;5094393;28;20452;-49
2022/01/18 03:11:26;;;;;;;27.35;17.23;;;;;;;5.28;65.59;100265.09;5095549;28;20411;-50
2022/01/18 03:13:51;;;;;;;25.00;15.18;;;;;;;5.27;65.28;100272.09;5094317;28;20155;-48
2022/01/18 03:16:17;;;;;;;28.50;16.85;;;;;;;5.17;65.09;100272.00;5095390;28;20103;-49
2022/01/18 03:18:43;;;;;;;27.67;16.80;;;;;;;5.10;65.56;100275.22;5094216;28;20027;-49
2022/01/18 03:21:10;;;;;;;26.63;15.48;;;;;;;5.00;64.90;100277.75;5095415;28;20024;-48
2022/01/18 03:23:36;;;;;;;25.77;16.15;;;;;;;4.91;65.27;100281.09;5095417;28;20016;-47
2022/01/18 03:26:04;;;;;;;24.98;14.90;;;;;;;4.81;65.34;100270.63;5094036;28;20409;-48
2022/01/18 03:28:30;;;;;;;32.90;17.40;;;;;;;4.73;66.14;100273.84;5093991;28;20108;-48
2022/01/18 03:30:59;;;;;;;34.13;15.80;;;;;;;4.71;66.00;100273.13;5095306;28;20048;-49
2022/01/18 03:33:28;;;;;;;24.48;14.25;;;;;;;4.69;65.76;100274.19;5095298;28;20065;-48
2022/01/18 03:35:55;;;;;;;23.70;13.60;;;;;;;4.71;66.19;100270.53;5094862;28;20105;-49
2022/01/18 03:38:29;;;;;;;25.85;15.18;;;;;;;4.71;66.14;100265.34;5095101;28;20565;-48
2022/01/18 03:40:56;;;;;;;23.67;13.85;;;;;;;4.75;65.82;100268.53;5095188;28;20778;-48
2022/01/18 03:43:22;;;;;;;25.95;15.45;;;;;;;4.75;65.51;100255.53;5093742;28;20028;-49
2022/01/18 03:45:48;;;;;;;32.80;18.75;;;;;;;4.75;65.77;100268.53;5093626;28;20031;-47
2022/01/18 03:48:25;;;;;;;26.02;15.27;;;;;;;4.78;65.53;100263.88;5095194;28;20028;-49
2022/01/18 03:50:52;;;;;;;22.95;14.43;;;;;;;4.76;65.92;100262.34;5094997;28;20024;-48
2022/01/18 03:53:19;;;;;;;23.77;14.88;;;;;;;4.71;65.97;100259.28;5094801;28;20500;-48
2022/01/18 03:55:46;;;;;;;30.38;19.52;;;;;;;4.67;65.73;100261.34;5094740;28;20100;-49
2022/01/18 03:58:12;;;;;;;29.65;16.02;;;;;;;4.67;66.32;100260.47;5094755;28;20051;-48
2022/01/18 04:00:37;;;;;;;27.42;16.58;;;;;;;4.67;66.18;100261.34;5094743;28;20141;-49
2022/01/18 04:03:04;;;;;;;29.67;16.48;;;;;;;4.71;66.29;100264.50;5094660;28;20028;-47
2022/01/18 04:05:30;;;;;;;24.10;14.90;;;;;;;4.75;66.19;100268.53;5094601;28;20128;-48
2022/01/18 04:07:56;;;;;;;27.15;15.88;;;;;;;4.83;65.99;100268.72;5093273;28;20035;-48
2022/01/18 04:10:22;;;;;;;31.50;16.63;;;;;;;4.80;65.94;100274.16;5093130;28;20406;-49
2022/01/18 04:12:49;;;;;;;29.90;17.92;;;;;;;4.83;66.42;100267.88;5093578;28;20408;-49
2022/01/18 04:15:16;;;;;;;30.55;16.30;;;;;;;4.93;66.49;100272.25;5094345;28;20089;-47
2022/01/18 04:28:31;;;;;;;24.40;15.27;;;;;;;5.14;65.66;100280.06;5094199;28;20504;-49
2022/01/18 04:30:57;;;;;;;25.95;15.60;;;;;;;5.03;65.27;100279.28;5094128;28;20151;-49
2022/01/18 04:33:23;;;;;;;26.35;16.45;;;;;;;5.06;65.59;100271.22;5094089;28;20046;-48
2022/01/18 04:35:49;;;;;;;38.92;21.05;;;;;;;5.12;65.65;100274.16;5092440;28;20044;-49
2022/01/18 04:38:14;;;;;;;25.98;15.68;;;;;;;5.20;65.17;100269.13;5093989;28;20016;-49
2022/01/18 04:40:43;;;;;;;27.05;15.63;;;;;;;5.28;65.67;100268.50;5093905;28;20034;-49
2022/01/18 04:43:28;;;;;;;25.80;15.77;;;;;;;5.35;65.06;100266.22;5093871;28;20028;-48
2022/01/18 04:48:37;;;;;;;26.48;16.42;;;;;;;5.35;64.87;100271.41;5094091;28;20178;-49
2022/01/18 04:51:11;;;;;;;52.25;38.05;;;;;;;5.29;64.78;100269.31;5093713;28;20106;-49
2022/01/18 04:53:40;;;;;;;28.42;15.63;;;;;;;5.24;64.94;100274.09;5093666;28;20394;-48
2022/01/18 04:56:13;;;;;;;33.50;17.98;;;;;;;5.18;64.47;100268.44;5093507;28;20024;-47
2022/01/18 04:58:39;;;;;;;31.40;18.00;;;;;;;4.98;64.86;100283.06;5093623;28;20076;-49
2022/01/18 05:01:06;;;;;;;28.70;15.90;;;;;;;4.76;65.98;100276.19;5093502;28;20024;-49
2022/01/18 05:03:32;;;;;;;32.78;18.83;;;;;;;4.88;66.00;100274.38;5092214;28;20024;-49
2022/01/18 05:06:01;;;;;;;28.20;16.67;;;;;;;5.01;65.80;100274.22;5092344;28;20524;-48
2022/01/18 05:08:27;;;;;;;31.85;17.67;;;;;;;5.12;65.66;100273.34;5093342;28;20349;-49
2022/01/18 05:10:56;;;;;;;39.05;21.52;;;;;;;5.16;65.76;100275.53;5091989;28;20050;-49
2022/01/18 05:16:23;;;;;;;28.55;16.50;;;;;;;5.03;65.68;100281.88;5093223;28;20032;-49
2022/01/18 05:19:09;;;;;;;44.03;17.23;;;;;;;5.00;65.66;100281.19;5092982;28;20397;-48
2022/01/18 05:24:25;;;;;;;40.38;20.30;;;;;;;4.98;66.43;100279.66;5093092;28;20059;-49
2022/01/18 05:26:52;;;;;;;39.13;21.98;;;;;;;4.96;66.45;100277.16;5093050;28;20028;-48
2022/01/18 05:29:19;;;;;;;32.15;16.50;;;;;;;4.90;66.15;100282.06;5093038;28;20031;-49
2022/01/18 05:31:45;;;;;;;32.55;18.05;;;;;;;4.88;66.42;100276.16;5093042;28;20024;-48
2022/01/18 05:34:12;;;;;;;38.70;21.30;;;;;;;4.83;66.38;100279.13;5093017;28;20405;-48
2022/01/18 05:36:38;;;;;;;36.85;17.77;;;;;;;4.81;66.83;100273.22;5092608;28;20092;-49
2022/01/18 05:39:06;;;;;;;33.58;16.98;;;;;;;4.80;66.56;100279.38;5092831;28;20024;-49
2022/01/18 05:41:32;;;;;;;42.72;19.48;;;;;;;4.82;66.68;100285.28;5092816;28;20016;-49
2022/01/18 05:43:57;;;;;;;32.88;19.15;;;;;;;4.86;66.95;100284.06;5092759;28;20497;-49
2022/01/18 05:46:24;;;;;;;38.60;17.77;;;;;;;4.95;66.84;100288.53;5092650;28;20052;-49
2022/01/18 05:48:50;;;;;;;40.45;18.17;;;;;;;4.97;66.74;100281.44;5092673;28;20052;-49
2022/01/18 05:51:16;;;;;;;39.83;18.17;;;;;;;5.02;66.34;100285.44;5092574;28;20100;-48
2022/01/18 05:53:41;;;;;;;40.00;18.67;;;;;;;5.05;66.10;100291.22;5092604;28;20474;-48
2022/01/18 05:56:11;;;;;;;34.30;16.75;;;;;;;5.12;65.92;100296.75;5092400;28;20021;-49
2022/01/18 05:58:45;;;;;;;37.50;17.40;;;;;;;5.08;65.69;100290.97;5092495;28;20032;-47
2022/01/18 06:01:21;;;;;;;30.20;16.95;;;;;;;5.02;65.70;100288.88;5092449;28;20027;-48
2022/01/18 06:09:09;;;;;;;38.22;19.52;;;;;;;5.10;65.53;100294.25;5092587;28;20500;-49
2022/01/18 06:11:35;;;;;;;27.27;16.58;;;;;;;5.10;65.53;100290.84;5092233;28;20024;-49
2022/01/18 06:14:01;;;;;;;33.67;17.13;;;;;;;5.17;65.64;100281.56;5092257;28;20024;-47
2022/01/18 06:16:27;;;;;;;27.67;16.33;;;;;;;5.16;65.29;100285.13;5092079;28;20024;-49
2022/01/18 06:18:54;;;;;;;28.77;16.30;;;;;;;5.10;65.22;100285.66;5092166;28;20028;-48
2022/01/18 06:21:20;;;;;;;29.88;16.00;;;;;;;5.03;65.13;100292.28;5092141;28;20095;-48
2022/01/18 06:23:46;;;;;;;27.13;14.70;;;;;;;4.93;65.86;100290.44;5092087;28;20055;-49
2022/01/18 06:26:16;;;;;;;25.02;14.73;;;;;;;4.94;65.38;100281.69;5091966;28;20074;-48
2022/01/18 06:28:43;;;;;;;33.05;16.13;;;;;;;4.92;65.70;100288.78;5092056;28;20483;-49
2022/01/18 06:31:09;;;;;;;30.05;16.90;;;;;;;4.85;65.59;100302.41;5092021;28;20027;-47
2022/01/18 06:33:35;;;;;;;28.30;16.65;;;;;;;4.72;65.65;100295.59;5090669;28;20030;-49
2022/01/18 06:36:01;;;;;;;25.10;13.90;;;;;;;4.74;65.61;100301.50;5091099;28;20506;-48
2022/01/18 06:38:27;;;;;;;25.95;14.40;;;;;;;4.85;65.79;100308.44;5090603;28;20465;-48
2022/01/18 06:40:53;;;;;;;27.77;15.10;;;;;;;4.90;65.72;100308.88;5091856;28;20028;-49
2022/01/18 06:43:19;;;;;;;26.58;14.77;;;;;;;4.91;65.39;100305.34;5091799;28;20024;-50
2022/01/18 06:45:46;;;;;;;32.25;15.70;;;;;;;4.89;65.08;100304.66;5090532;28;20555;-48
2022/01/18 06:48:12;;;;;;;30.50;13.55;;;;;;;4.89;64.99;100311.59;5091853;28;20020;-49
2022/01/18 06:50:37;;;;;;;31.20;16.80;;;;;;;4.83;64.87;100309.50;5091804;28;20037;-49
2022/01/18 06:53:04;;;;;;;29.95;14.95;;;;;;;4.59;65.28;100311.34;5091767;28;20027;-48
2022/01/18 06:55:30;;;;;;;27.10;15.25;;;;;;;4.56;65.59;100316.78;5091665;28;20032;-49
2022/01/18 06:57:58;;;;;;;28.73;15.02;;;;;;;4.71;66.07;100308.69;5090436;28;20024;-47
2022/01/18 07:00:24;;;;;;;24.63;14.43;;;;;;;4.77;66.12;100309.06;5091682;28;20020;-48
2022/01/18 07:02:50;;;;;;;26.60;14.27;;;;;;;4.83;66.04;100315.56;5091703;28;20020;-48
2022/01/18 07:05:16;;;;;;;35.30;15.70;;;;;;;4.91;65.58;100312.31;5090328;28;20529;-51
2022/01/18 07:07:42;;;;;;;27.85;14.52;;;;;;;4.94;65.09;100305.09;5091682;28;20024;-49
2022/01/18 07:10:09;;;;;;;37.35;16.13;;;;;;;4.89;65.35;100307.25;5091577;28;20024;-49
2022/01/18 07:12:35;;;;;;;39.22;14.38;;;;;;;4.92;65.19;100300.97;5091619;28;20028;-48
2022/01/18 07:15:08;;;;;;;34.25;16.77;;;;;;;4.91;65.28;100310.56;5091630;28;20030;-48
2022/01/18 07:17:35;;;;;;;31.55;16.08;;;;;;;4.85;64.96;100305.00;5091885;28;20040;-48
2022/01/18 07:20:02;;;;;;;27.73;14.73;;;;;;;4.86;65.50;100309.28;5091502;28;20510;-48
2022/01/18 07:22:27;;;;;;;27.45;14.68;;;;;;;4.99;65.18;100309.94;5091532;28;20090;-48
2022/01/18 07:24:57;;;;;;;41.15;19.60;;;;;;;5.08;65.29;100310.97;5091574;28;20020;-47
2022/01/18 07:27:23;;;;;;;31.80;15.90;;;;;;;5.16;64.63;100311.16;5091466;28;20024;-49
2022/01/18 07:29:49;;;;;;;33.38;15.05;;;;;;;5.11;64.92;100318.50;5091476;28;20021;-48
2022/01/18 07:32:14;;;;;;;29.50;17.33;;;;;;;5.11;64.58;100311.56;5091354;28;20120;-49
2022/01/18 07:34:49;;;;;;;28.00;15.98;;;;;;;5.11;64.57;100321.09;5091192;28;20498;-47
2022/01/18 07:37:15;;;;;;;31.42;20.60;;;;;;;5.18;64.33;100319.66;5091344;28;20077;-49
2022/01/18 07:39:41;;;;;;;27.45;16.40;;;;;;;5.22;64.17;100322.84;5090026;28;20020;-48
2022/01/18 07:42:07;;;;;;;28.30;15.77;;;;;;;5.27;64.44;100318.09;5091234;28;20084;-49
2022/01/18 07:44:33;;;;;;;34.30;16.20;;;;;;;5.27;64.26;100323.28;5091312;28;20100;-49
2022/01/18 07:46:59;;;;;;;51.17;38.20;;;;;;;5.29;64.04;100327.44;5091564;28;20465;-48
2022/01/18 07:49:25;;;;;;;31.77;15.25;;;;;;;5.33;64.26;100328.00;5094999;28;20024;-47
2022/01/18 07:51:51;;;;;;;32.50;15.88;;;;;;;5.38;64.43;100331.88;5094912;28;20486;-49
2022/01/18 07:54:17;;;;;;;34.42;17.10;;;;;;;5.36;64.18;100331.19;5094845;28;20027;-49
2022/01/18 07:56:44;;;;;;;26.35;15.85;;;;;;;5.42;63.95;100326.44;5094748;28;20566;-49
2022/01/18 07:59:11;;;;;;;27.65;15.45;;;;;;;5.49;63.19;100325.78;5094750;28;20016;-49
2022/01/18 08:01:38;;;;;;;24.40;14.98;;;;;;;5.54;63.26;100328.03;5094672;28;20024;-49
2022/01/18 08:04:04;;;;;;;177.05;129.82;;;;;;;5.54;63.08;100326.22;5094679;28;20508;-48
2022/01/18 08:06:31;;;;;;;56.97;40.45;;;;;;;5.53;63.14;100324.59;5094629;28;20024;-48
2022/01/18 08:08:56;;;;;;;161.48;115.15;;;;;;;5.59;63.36;100318.88;5094586;28;20609;-47
2022/01/18 08:11:22;;;;;;;104.25;80.00;;;;;;;5.55;63.72;100324.44;5094477;28;20028;-48
2022/01/18 08:13:50;;;;;;;36.60;19.63;;;;;;;5.58;63.55;100324.22;5094493;28;20422;-49
2022/01/18 08:16:46;;;;;;;34.80;18.20;;;;;;;5.69;62.81;100328.50;5094334;28;20032;-48
2022/01/18 08:19:09;;;;;;;30.23;16.83;;;;;;;5.80;63.54;100331.06;5094159;28;20032;-48
2022/01/18 08:21:35;;;;;;;29.65;15.82;;;;;;;5.88;62.83;100338.22;5094358;28;20178;-48
2022/01/18 08:24:00;;;;;;;32.65;15.38;;;;;;;5.84;62.85;100337.66;5092831;28;20051;-47
2022/01/18 08:26:26;;;;;;;27.33;16.30;;;;;;;5.75;62.98;100334.03;5094244;28;20122;-48
2022/01/18 08:28:52;;;;;;;29.05;15.43;;;;;;;5.76;62.82;100343.50;5094178;28;20024;-48
2022/01/18 08:31:18;;;;;;;26.75;14.63;;;;;;;5.73;62.77;100341.13;5092822;28;20073;-49
2022/01/18 08:33:43;;;;;;;28.40;17.10;;;;;;;5.64;62.87;100338.50;5094116;28;20117;-48
2022/01/18 08:36:09;;;;;;;28.05;15.02;;;;;;;5.54;63.07;100335.84;5093666;28;20047;-48
2022/01/18 08:38:36;;;;;;;25.83;16.23;;;;;;;5.57;63.34;100343.38;5094022;28;20035;-49
2022/01/18 08:41:02;;;;;;;33.47;16.95;;;;;;;5.60;62.90;100343.13;5094232;28;20111;-49
2022/01/18 08:43:33;;;;;;;26.98;14.98;;;;;;;5.71;63.15;100340.44;5093924;28;20493;-49
2022/01/18 08:46:03;;;;;;;33.88;17.85;;;;;;;5.83;63.08;100345.59;5093868;28;20050;-50
2022/01/18 08:48:30;;;;;;;32.60;16.75;;;;;;;5.88;62.40;100352.06;5093780;28;20024;-48
2022/01/18 08:50:56;;;;;;;31.83;16.52;;;;;;;5.93;62.41;100351.69;5092441;28;20016;-48
2022/01/18 08:53:22;;;;;;;34.90;16.77;;;;;;;5.98;62.49;100339.13;5093728;28;20020;-49
2022/01/18 08:55:48;;;;;;;44.88;18.63;;;;;;;6.01;61.86;100344.06;5093596;28;20012;-49
2022/01/18 08:58:13;;;;;;;42.88;18.63;;;;;;;6.13;61.76;100352.63;5093484;28;20020;-48
2022/01/18 09:00:39;;;;;;;45.22;29.27;;;;;;;6.19;61.94;100342.50;5093558;28;20016;-47
2022/01/18 09:03:06;;;;;;;32.53;16.63;;;;;;;6.18;61.38;100356.50;5093545;28;20532;-47
2022/01/18 09:05:31;;;;;;;34.88;16.27;;;;;;;6.24;61.40;100356.94;5092468;28;20415;-49
2022/01/18 09:08:01;;;;;;;28.05;17.13;;;;;;;6.28;61.02;100353.94;5093416;28;20073;-48
2022/01/18 09:10:27;;;;;;;32.10;16.35;;;;;;;6.27;60.69;100354.06;5093683;28;20508;-48
2022/01/18 09:12:53;;;;;;;45.30;18.15;;;;;;;6.20;60.88;100357.22;5093648;28;20032;-48
2022/01/18 09:15:19;;;;;;;36.13;18.83;;;;;;;6.13;60.66;100361.28;5093210;28;20020;-49
2022/01/18 09:17:45;;;;;;;30.92;16.60;;;;;;;6.00;61.01;100361.50;5093264;28;20435;-47
2022/01/18 09:20:13;;;;;;;168.88;126.20;;;;;;;6.04;61.67;100351.66;5091870;28;20035;-50
2022/01/18 09:22:42;;;;;;;57.65;35.58;;;;;;;6.06;60.99;100351.53;5093159;28;20035;-48
2022/01/18 09:25:12;;;;;;;44.50;19.63;;;;;;;6.04;61.20;100353.41;5093088;28;20028;-49
2022/01/18 09:27:39;;;;;;;36.45;18.10;;;;;;;5.93;61.20;100355.09;5091778;28;20547;-47
2022/01/18 09:30:05;;;;;;;31.45;18.77;;;;;;;5.97;61.60;100356.53;5091670;28;20078;-49
2022/01/18 09:32:31;;;;;;;40.00;18.27;;;;;;;6.00;61.69;100361.50;5092946;28;20509;-49
2022/01/18 09:34:57;;;;;;;41.38;18.38;;;;;;;6.07;61.49;100366.19;5092675;28;20462;-49
2022/01/18 09:37:23;;;;;;;37.53;18.80;;;;;;;6.08;61.22;100370.47;5092835;28;20020;-48
2022/01/18 09:39:49;;;;;;;61.75;26.80;;;;;;;6.11;61.18;100368.41;5091479;28;20035;-47
2022/01/18 09:42:17;;;;;;;33.33;18.17;;;;;;;6.28;61.07;100368.75;5092812;28;20016;-47
2022/01/18 09:44:43;;;;;;;33.47;18.05;;;;;;;6.45;61.27;100355.09;5092788;28;20020;-48
2022/01/18 09:47:09;;;;;;;43.28;18.77;;;;;;;6.57;60.93;100358.44;5092943;28;20032;-48
2022/01/18 09:49:35;;;;;;;48.13;17.50;;;;;;;6.67;60.32;100358.47;5092684;28;20027;-49
2022/01/18 09:52:01;;;;;;;37.90;18.15;;;;;;;6.66;59.41;100372.44;5092623;28;20028;-48
2022/01/18 09:54:27;;;;;;;38.47;18.73;;;;;;;6.59;60.24;100365.16;5092835;28;20028;-48
2022/01/18 09:56:53;;;;;;;31.08;17.02;;;;;;;6.65;59.81;100369.03;5092350;28;20398;-49
2022/01/18 09:59:19;;;;;;;37.85;18.10;;;;;;;6.77;60.38;100367.13;5092518;28;20089;-49
2022/01/18 10:01:44;;;;;;;35.85;17.10;;;;;;;6.96;59.93;100374.16;5092330;28;20110;-49
2022/01/18 10:04:21;;;;;;;31.70;16.40;;;;;;;7.02;59.66;100372.81;5092419;28;20031;-48
2022/01/18 10:06:49;;;;;;;36.55;17.23;;;;;;;7.16;59.73;100368.03;5092317;28;20054;-48
2022/01/18 10:09:17;;;;;;;38.85;15.52;;;;;;;7.44;58.90;100369.94;5090799;28;20375;-49
2022/01/18 10:12:01;;;;;;;26.48;14.55;;;;;;;7.63;58.73;100367.31;5090498;28;20024;-49
2022/01/18 10:14:29;;;;;;;35.25;13.60;;;;;;;7.70;57.68;100368.38;5092295;28;20027;-48
2022/01/18 10:16:55;;;;;;;50.38;15.18;;;;;;;7.80;57.44;100368.38;5092174;28;20020;-48
2022/01/18 10:19:42;;;;;;;32.28;14.40;;;;;;;7.87;57.11;100360.78;5092249;28;20076;-49
2022/01/18 10:22:09;;;;;;;21.48;13.45;;;;;;;7.83;56.09;100362.88;5092192;28;20031;-48
2022/01/18 10:24:35;;;;;;;29.10;14.38;;;;;;;7.85;56.45;100362.72;5090857;28;20027;-48
2022/01/18 10:27:01;;;;;;;23.05;13.80;;;;;;;7.91;55.77;100356.97;5090757;28;20032;-49
2022/01/18 10:29:32;;;;;;;26.17;14.40;;;;;;;7.74;55.44;100354.06;5090769;28;20458;-48
2022/01/18 10:32:10;;;;;;;22.52;12.32;;;;;;;7.55;56.06;100359.34;5090768;28;20503;-49
2022/01/18 10:37:15;;;;;;;23.55;13.23;;;;;;;7.74;56.58;100351.47;5091882;28;20036;-49
2022/01/18 10:39:52;;;;;;;24.52;11.70;;;;;;;7.88;54.92;100346.78;5090675;28;20429;-48
2022/01/18 10:42:42;;;;;;;23.35;11.98;;;;;;;8.01;54.70;100339.44;5091913;28;20028;-48
2022/01/18 10:45:33;;;;;;;24.05;11.35;;;;;;;8.02;54.40;100337.66;5091854;28;20023;-49
2022/01/18 10:48:25;;;;;;;20.25;11.85;;;;;;;8.14;54.92;100345.16;5090559;28;20032;-49
2022/01/18 10:50:51;;;;;;;24.60;11.13;;;;;;;7.98;54.53;100340.53;5086743;28;20036;-49
2022/01/18 10:53:23;;;;;;;30.83;13.32;;;;;;;7.84;53.92;100351.44;5090452;28;20549;-49
2022/01/18 10:55:51;;;;;;;31.38;12.38;;;;;;;7.72;55.23;100339.50;5091681;28;20051;-49
2022/01/18 10:58:22;;;;;;;28.77;12.65;;;;;;;7.88;55.48;100331.09;5091771;28;20063;-49
2022/01/18 11:00:48;;;;;;;23.90;12.55;;;;;;;7.96;55.18;100332.00;5091703;28;20023;-49
2022/01/18 11:03:14;;;;;;;21.48;12.60;;;;;;;7.99;54.46;100331.75;5091730;28;20036;-48
2022/01/18 11:05:43;;;;;;;25.92;12.50;;;;;;;7.92;55.02;100322.00;5091641;28;20021;-49
2022/01/18 11:08:09;;;;;;;20.88;12.00;;;;;;;7.89;54.50;100319.69;5091676;28;20565;-49
2022/01/18 11:10:37;;;;;;;22.83;12.43;;;;;;;7.89;54.56;100315.25;5091635;28;20019;-50
2022/01/18 11:13:10;;;;;;;23.40;12.95;;;;;;;7.94;54.80;100309.59;5107244;28;20024;-48
2022/01/18 11:15:42;;;;;;;23.10;13.40;;;;;;;7.99;54.80;100307.41;5091576;28;20027;-49
2022/01/18 11:18:45;;;;;;;25.75;12.55;;;;;;;8.05;54.79;100306.81;5091638;28;20077;-49
2022/01/18 11:21:05;;;;;;;24.60;12.50;;;;;;;8.10;54.54;100301.16;5089631;28;20036;-49
2022/01/18 11:23:34;;;;;;;20.30;12.45;;;;;;;8.05;54.77;100292.91;5095482;28;20016;-50
2022/01/18 11:26:00;;;;;;;20.52;12.10;;;;;;;8.08;54.68;100292.63;5095417;28;20160;-49
2022/01/18 11:28:26;;;;;;;29.58;14.25;;;;;;;8.06;54.51;100295.38;5095408;28;20043;-49
2022/01/18 11:30:52;;;;;;;25.67;12.82;;;;;;;8.14;54.49;100292.03;5093989;28;20024;-49
2022/01/18 11:33:23;;;;;;;53.42;15.43;;;;;;;8.25;54.67;100280.56;5095266;28;20397;-48
2022/01/18 11:36:02;;;;;;;51.97;14.18;;;;;;;8.45;53.73;100292.63;5093614;28;20037;-49
2022/01/18 11:38:36;;;;;;;45.25;14.90;;;;;;;8.61;53.57;100284.09;5095560;28;20017;-49
2022/01/18 11:41:02;;;;;;;31.00;14.05;;;;;;;8.67;53.35;100275.69;5093788;28;20072;-50
2022/01/18 11:43:51;;;;;;;46.95;12.57;;;;;;;8.78;53.08;100277.25;5095164;28;20016;-49
2022/01/18 11:46:30;;;;;;;40.75;13.60;;;;;;;8.77;52.69;100272.97;5093769;28;20036;-49
2022/01/18 11:49:21;;;;;;;29.77;13.48;;;;;;;8.82;52.77;100275.97;5093765;28;20028;-49
2022/01/18 11:52:36;;;;;;;23.58;13.23;;;;;;;8.90;52.86;100273.41;5094987;28;20519;-49
2022/01/18 11:55:03;;;;;;;21.40;12.32;;;;;;;8.91;52.84;100271.63;5067908;28;20032;-49
2022/01/18 11:57:29;;;;;;;39.03;15.10;;;;;;;8.96;52.58;100264.97;5094772;28;20028;-50
2022/01/18 11:59:58;;;;;;;30.15;13.38;;;;;;;9.05;52.28;100271.09;5093490;28;20055;-50
2022/01/18 12:02:30;;;;;;;20.17;12.88;;;;;;;9.01;51.69;100264.50;5094750;28;20024;-49
2022/01/18 12:05:01;;;;;;;22.02;11.32;;;;;;;8.97;51.60;100271.88;5093709;28;20454;-49
2022/01/18 12:07:56;;;;;;;35.38;13.25;;;;;;;8.98;51.89;100270.88;5094705;28;20035;-49
2022/01/18 12:10:28;;;;;;;27.98;13.10;;;;;;;8.98;51.67;100263.03;5088834;28;20043;-48
2022/01/18 12:12:55;;;;;;;23.25;13.38;;;;;;;8.93;51.88;100269.66;5094593;28;20024;-49
2022/01/18 12:15:26;;;;;;;38.38;14.80;;;;;;;8.95;52.37;100268.56;5094499;28;20024;-48
2022/01/18 12:18:24;;;;;;;25.77;14.13;;;;;;;8.94;52.22;100264.28;5094509;28;20024;-49
2022/01/18 12:20:53;;;;;;;26.92;15.15;;;;;;;8.73;52.36;100266.38;5075909;28;20382;-50
2022/01/18 12:23:27;;;;;;;21.20;14.23;;;;;;;8.55;52.77;100261.13;5094385;28;20023;-50